Aviation Digital Data Service (ADDS)

Output produced by METARs form (1152 UTC 11 December 2016)
found at http://aviationweather.gov/adds/metars/
 
KRWI 111139Z 1112/1212 00000KT P6SM FEW250 
     FM112000 14005KT P6SM BKN040 OVC250 
     FM120100 14006KT P6SM -RA SCT011 OVC024 
     FM120500 20004KT 2SM -RA BR OVC006 
     FM120900 20010KT 1SM -DZ BR OVC004